Time;durP1;ratioP1;P1;durP2;ratioP2;P2;SDS_P1;SDS_P2;PMS_P1;PMS_P2;Temp;Humidity;BMP_temperature;BMP_pressure;BME280_temperature;BME280_humidity;BME280_pressure;Samples;Min_cycle;Max_cycle;Signal;HPM_P1;HPM_P2
2022/06/05 00:00:01;;;;;;;6.50;5.50;;;;;;;26.72;52.91;101114.84;5053166;28;20421;-56
2022/06/05 00:02:35;;;;;;;6.55;5.55;;;;;;;26.71;52.46;101119.47;5053708;28;20418;-55
2022/06/05 00:05:14;;;;;;;7.82;5.93;;;;;;;26.69;52.51;101118.94;5051615;28;20415;-58
2022/06/05 00:07:47;;;;;;;6.63;5.90;;;;;;;26.68;52.70;101128.97;5052602;28;20809;-57
2022/06/05 00:10:19;;;;;;;6.75;5.63;;;;;;;26.72;52.56;101126.53;5057649;28;20431;-57
2022/06/05 00:12:53;;;;;;;6.38;5.43;;;;;;;26.64;52.58;101127.06;5054536;28;20416;-58
2022/06/05 00:15:20;;;;;;;6.28;5.68;;;;;;;26.61;52.83;101133.03;5052124;28;20890;-56
2022/06/05 00:17:47;;;;;;;8.82;5.90;;;;;;;26.65;52.72;101132.25;5052847;28;20946;-58
2022/06/05 00:20:16;;;;;;;6.63;6.00;;;;;;;26.63;52.55;101128.16;5056244;28;20427;-57
2022/06/05 00:22:44;;;;;;;8.15;6.10;;;;;;;26.56;52.99;101131.09;5056102;28;20413;-58
2022/06/05 00:25:13;;;;;;;7.65;6.30;;;;;;;26.57;52.80;101140.06;5053918;28;20420;-59
2022/06/05 00:27:48;;;;;;;6.95;6.03;;;;;;;26.52;52.75;101138.13;5053832;28;20424;-58
2022/06/05 00:30:21;;;;;;;7.20;6.47;;;;;;;26.44;53.12;101134.03;5054190;28;20423;-56
2022/06/05 00:32:52;;;;;;;7.15;6.10;;;;;;;26.44;53.26;101131.31;5053654;28;20510;-58
2022/06/05 00:35:21;;;;;;;6.65;5.97;;;;;;;26.42;53.26;101138.94;5057390;28;20415;-58
2022/06/05 00:37:59;;;;;;;6.88;6.10;;;;;;;26.44;53.12;101134.03;5058881;28;20415;-58
2022/06/05 00:40:35;;;;;;;8.70;6.20;;;;;;;26.37;53.04;101135.38;5057597;28;20420;-58
2022/06/05 00:43:09;;;;;;;7.50;6.00;;;;;;;26.40;53.29;101129.38;5055725;28;20489;-58
2022/06/05 00:45:39;;;;;;;6.72;5.70;;;;;;;26.39;53.29;101128.59;5054353;28;20436;-57
2022/06/05 00:48:06;;;;;;;7.07;6.18;;;;;;;26.36;53.45;101123.66;5055393;28;20423;-56
2022/06/05 00:50:35;;;;;;;8.25;6.40;;;;;;;26.35;53.58;101130.22;5054538;28;20425;-57
2022/06/05 00:53:04;;;;;;;8.63;6.28;;;;;;;26.30;53.43;101125.56;5054247;28;20419;-57
2022/06/05 00:55:41;;;;;;;7.10;6.40;;;;;;;26.29;53.59;101113.06;5058104;28;20729;-59
2022/06/05 00:58:09;;;;;;;7.13;6.43;;;;;;;26.30;53.69;101111.16;5056398;28;20417;-58
2022/06/05 01:00:39;;;;;;;6.90;6.18;;;;;;;26.26;53.56;101119.03;5060023;28;20421;-58
2022/06/05 01:03:10;;;;;;;7.05;6.18;;;;;;;26.28;53.36;101105.97;5057104;28;20420;-58
2022/06/05 01:05:39;;;;;;;6.70;6.00;;;;;;;26.28;53.48;101107.88;5055777;28;20424;-58
2022/06/05 01:08:07;;;;;;;8.70;6.20;;;;;;;26.24;53.48;101113.03;5055667;28;20498;-58
2022/06/05 01:10:44;;;;;;;9.98;6.53;;;;;;;26.20;53.45;101117.38;5057424;28;20426;-59
2022/06/05 01:13:20;;;;;;;7.22;6.53;;;;;;;26.17;53.73;101123.34;5060311;28;20414;-59
2022/06/05 01:15:56;;;;;;;7.50;6.53;;;;;;;26.14;53.50;101118.41;5054082;28;20441;-58
2022/06/05 01:18:31;;;;;;;7.70;6.35;;;;;;;26.14;54.03;101118.41;5057482;28;20429;-58
2022/06/05 01:21:14;;;;;;;7.70;6.23;;;;;;;26.12;53.90;101121.41;5056364;28;20474;-58
2022/06/05 01:23:54;;;;;;;9.07;6.53;;;;;;;26.13;53.96;101119.53;5058755;28;20429;-57
2022/06/05 01:26:28;;;;;;;9.25;6.78;;;;;;;26.06;54.03;101117.03;5054005;28;20794;-58
2022/06/05 01:29:00;;;;;;;7.22;6.53;;;;;;;26.10;54.18;101120.84;5053530;28;20508;-58
2022/06/05 01:31:31;;;;;;;7.75;6.68;;;;;;;26.12;53.78;101112.44;5054988;28;20416;-58
2022/06/05 01:34:08;;;;;;;8.60;6.72;;;;;;;26.00;54.49;101111.81;5056525;28;20416;-58
2022/06/05 01:36:42;;;;;;;7.82;6.60;;;;;;;25.96;54.57;101108.00;5058831;28;20411;-58
2022/06/05 01:39:13;;;;;;;8.57;6.53;;;;;;;25.97;54.68;101112.38;5059064;28;20482;-58
2022/06/05 01:41:47;;;;;;;7.22;6.53;;;;;;;25.98;54.44;101101.22;5054709;28;20803;-58
2022/06/05 01:44:17;;;;;;;7.00;6.15;;;;;;;25.99;54.41;101097.44;5061352;28;20428;-56
2022/06/05 01:46:44;;;;;;;6.60;6.00;;;;;;;26.03;54.68;101092.28;5057380;28;20426;-58
2022/06/05 01:49:17;;;;;;;6.75;5.97;;;;;;;26.01;54.52;101094.47;5055396;28;20920;-58
2022/06/05 01:51:52;;;;;;;7.03;6.32;;;;;;;26.00;54.90;101095.53;5061946;28;20441;-56
2022/06/05 01:54:23;;;;;;;8.95;6.25;;;;;;;25.96;55.00;101091.72;5057817;28;20448;-58
2022/06/05 01:56:55;;;;;;;6.25;5.65;;;;;;;25.97;55.03;101093.38;5057860;28;20449;-58
2022/06/05 01:59:26;;;;;;;7.15;6.25;;;;;;;25.96;55.30;101087.09;5054982;28;20937;-57
2022/06/05 02:01:58;;;;;;;7.15;6.55;;;;;;;25.94;55.44;101090.06;5051973;28;20470;-58
2022/06/05 02:04:31;;;;;;;8.50;6.10;;;;;;;25.85;55.68;101090.81;5054514;28;20940;-57
2022/06/05 02:07:04;;;;;;;9.93;6.20;;;;;;;25.86;55.78;101093.25;5054882;28;20428;-58
2022/06/05 02:09:35;;;;;;;6.93;5.75;;;;;;;25.69;56.17;101089.91;5056472;28;20416;-57
2022/06/05 02:12:06;;;;;;;8.30;6.30;;;;;;;25.71;56.07;101095.88;5056819;28;20794;-58
2022/06/05 02:14:33;;;;;;;6.93;6.22;;;;;;;25.64;56.23;101089.84;5056804;28;20413;-58
2022/06/05 02:17:00;;;;;;;8.52;6.70;;;;;;;25.68;56.15;101094.53;5056552;28;20416;-58
2022/06/05 02:19:27;;;;;;;7.00;6.10;;;;;;;25.62;56.16;101090.13;5054556;28;20964;-57
2022/06/05 02:22:02;;;;;;;8.50;6.50;;;;;;;25.56;56.41;101091.97;5056048;28;20528;-57
2022/06/05 02:24:29;;;;;;;8.93;6.28;;;;;;;25.55;56.53;101084.09;5054064;28;20414;-57
2022/06/05 02:26:59;;;;;;;8.52;5.90;;;;;;;25.46;56.82;101093.81;5055394;28;20956;-56
2022/06/05 02:29:28;;;;;;;9.15;6.15;;;;;;;25.45;56.75;101087.56;5052829;28;20419;-58
2022/06/05 02:32:05;;;;;;;9.13;5.82;;;;;;;25.54;56.43;101087.91;5054554;28;20949;-58
2022/06/05 02:34:40;;;;;;;7.80;5.90;;;;;;;25.41;56.79;101088.34;5054245;28;20435;-57
2022/06/05 02:37:18;;;;;;;7.22;6.20;;;;;;;25.35;56.78;101091.03;5054123;28;20417;-58
2022/06/05 02:39:55;;;;;;;8.27;6.23;;;;;;;25.25;57.05;101090.16;5055803;28;20422;-56
2022/06/05 02:42:29;;;;;;;7.03;6.10;;;;;;;25.34;56.98;101089.41;5055434;28;20939;-57
2022/06/05 02:45:05;;;;;;;7.33;5.93;;;;;;;25.35;56.91;101092.91;5054387;28;20416;-57
2022/06/05 02:47:40;;;;;;;9.10;6.47;;;;;;;25.31;57.04;101092.63;5051863;28;20516;-58
2022/06/05 02:50:12;;;;;;;8.10;6.13;;;;;;;25.21;57.41;101094.41;5055485;28;20415;-57
2022/06/05 02:52:41;;;;;;;7.50;6.13;;;;;;;25.29;56.90;101086.63;5058904;28;20436;-57
2022/06/05 02:55:11;;;;;;;7.35;6.28;;;;;;;25.22;57.13;101085.19;5053321;28;20424;-58
2022/06/05 02:57:38;;;;;;;9.13;7.20;;;;;;;25.31;56.91;101089.09;5055983;28;20420;-58
2022/06/05 03:00:10;;;;;;;7.25;5.60;;;;;;;25.11;57.23;101087.00;5054078;28;20431;-57
2022/06/05 03:05:21;;;;;;;7.57;6.88;;;;;;;25.28;56.90;101090.44;5063137;28;20433;-58
2022/06/05 03:07:49;;;;;;;8.75;7.20;;;;;;;25.33;56.56;101095.88;5068020;28;20427;-56
2022/06/05 03:10:16;;;;;;;7.67;6.57;;;;;;;25.20;56.93;101096.31;5068156;28;20414;-56
2022/06/05 03:12:43;;;;;;;8.10;7.25;;;;;;;25.15;57.10;101098.97;5063390;28;20418;-58
2022/06/05 03:15:12;;;;;;;8.68;6.65;;;;;;;25.09;57.27;101100.81;5070311;28;20457;-58
2022/06/05 03:17:38;;;;;;;10.35;7.78;;;;;;;25.19;56.94;101098.22;5073680;28;20949;-58
2022/06/05 03:20:07;;;;;;;8.35;6.50;;;;;;;25.16;56.97;101106.03;5071212;28;20423;-58
2022/06/05 03:22:34;;;;;;;9.32;6.80;;;;;;;25.31;56.64;101108.91;5073287;28;20976;-57
2022/06/05 03:25:01;;;;;;;9.18;7.03;;;;;;;25.31;56.53;101110.81;5071411;28;20524;-58
2022/06/05 03:27:30;;;;;;;9.15;7.93;;;;;;;25.51;55.88;101110.13;5064707;28;20425;-57
2022/06/05 03:29:57;;;;;;;8.02;6.68;;;;;;;25.63;55.60;101108.06;5067139;28;20883;-58
2022/06/05 03:32:25;;;;;;;10.30;7.40;;;;;;;25.80;55.29;101107.06;5067827;28;20416;-58
2022/06/05 03:34:52;;;;;;;8.95;8.05;;;;;;;25.96;54.63;101095.25;5071661;28;20413;-58
2022/06/05 03:37:20;;;;;;;9.63;6.65;;;;;;;26.00;54.30;101098.25;5073345;28;20425;-58
2022/06/05 03:39:47;;;;;;;10.27;8.18;;;;;;;25.87;54.71;101115.81;5071856;28;20465;-58
2022/06/05 03:42:14;;;;;;;9.38;8.48;;;;;;;25.90;54.48;101101.72;5070258;28;20453;-58
2022/06/05 03:44:42;;;;;;;8.07;7.27;;;;;;;26.00;54.34;101112.66;5069736;28;20808;-58
2022/06/05 03:47:11;;;;;;;8.88;7.43;;;;;;;26.05;53.97;101114.56;5071527;28;20428;-58
2022/06/05 03:49:40;;;;;;;8.32;7.43;;;;;;;26.09;53.79;101110.25;5061536;28;20415;-58
2022/06/05 03:52:08;;;;;;;8.57;6.70;;;;;;;26.09;53.93;101107.53;5083001;28;20409;-58
2022/06/05 03:54:35;;;;;;;9.52;6.90;;;;;;;26.07;53.55;101113.25;5076430;28;20483;-58
2022/06/05 03:57:02;;;;;;;8.50;7.05;;;;;;;26.13;53.71;101114.91;5076916;28;20415;-58
2022/06/05 03:59:29;;;;;;;8.27;6.50;;;;;;;26.13;53.73;101117.59;5081975;28;20428;-58
2022/06/05 04:01:56;;;;;;;7.88;7.07;;;;;;;26.09;53.42;101112.97;5072283;28;20437;-58
2022/06/05 04:04:23;;;;;;;8.90;7.07;;;;;;;26.10;53.59;101117.31;5071503;28;20410;-58
2022/06/05 04:06:51;;;;;;;7.70;6.13;;;;;;;26.09;53.34;101116.50;5064333;28;20422;-58
2022/06/05 04:09:18;;;;;;;8.20;7.07;;;;;;;26.00;53.43;101120.81;5070240;28;20425;-58
2022/06/05 04:11:45;;;;;;;9.30;8.15;;;;;;;25.92;53.69;101121.28;5070894;28;20421;-58
2022/06/05 04:14:12;;;;;;;8.80;7.53;;;;;;;25.99;53.51;101124.59;5070469;28;20430;-58
2022/06/05 04:16:41;;;;;;;8.52;7.00;;;;;;;26.00;53.74;101122.69;5070840;28;20417;-58
2022/06/05 04:19:08;;;;;;;7.57;6.63;;;;;;;26.02;53.50;101128.69;5066370;28;20419;-58
2022/06/05 04:21:38;;;;;;;8.00;6.82;;;;;;;26.10;53.41;101129.00;5071046;28;20445;-58
2022/06/05 04:24:06;;;;;;;8.38;6.72;;;;;;;26.18;52.88;101124.16;5070590;28;20417;-58
2022/06/05 04:26:35;;;;;;;11.07;7.20;;;;;;;26.35;52.55;101113.09;5068131;28;20425;-57
2022/06/05 04:29:02;;;;;;;7.35;6.32;;;;;;;26.59;51.95;101113.44;5066239;28;20410;-58
2022/06/05 04:31:31;;;;;;;8.85;6.13;;;;;;;26.81;51.82;101115.94;5070937;28;20500;-58
2022/06/05 04:34:00;;;;;;;7.65;6.10;;;;;;;27.05;51.34;101113.56;5073447;28;20430;-59
2022/06/05 04:36:27;;;;;;;8.68;6.00;;;;;;;27.22;50.60;101097.75;5070405;28;20423;-58
2022/06/05 04:38:55;;;;;;;7.90;5.63;;;;;;;27.48;50.17;101102.41;5065419;28;20433;-58
2022/06/05 04:41:25;;;;;;;6.70;6.00;;;;;;;27.71;49.05;101103.72;5070269;28;20936;-56
2022/06/05 04:43:54;;;;;;;8.15;5.38;;;;;;;27.90;48.81;101106.69;5073152;28;20410;-56
2022/06/05 04:46:22;;;;;;;8.60;6.05;;;;;;;28.15;48.49;101108.53;5070535;28;20423;-58
2022/06/05 04:48:49;;;;;;;6.55;5.75;;;;;;;28.26;48.34;101107.41;5071171;28;20801;-58
2022/06/05 04:51:18;;;;;;;9.23;5.80;;;;;;;28.51;47.52;101106.47;5075871;28;20424;-56
2022/06/05 04:53:46;;;;;;;8.65;5.55;;;;;;;28.76;47.33;101096.53;5079642;28;21019;-58
2022/06/05 04:56:15;;;;;;;6.70;5.50;;;;;;;28.87;46.92;101098.09;5077189;28;20427;-58
2022/06/05 04:58:44;;;;;;;10.35;5.53;;;;;;;29.08;46.58;101089.72;5073233;28;21037;-58
2022/06/05 05:01:11;;;;;;;6.85;5.45;;;;;;;29.30;46.34;101087.38;5084511;28;20428;-58
2022/06/05 05:03:38;;;;;;;7.60;5.38;;;;;;;29.47;45.71;101086.94;5080635;28;20423;-58
2022/06/05 05:06:05;;;;;;;6.93;5.35;;;;;;;29.66;45.44;101091.69;5073173;28;20969;-59
2022/06/05 05:08:33;;;;;;;7.43;5.65;;;;;;;29.96;44.96;101089.75;5080638;28;20802;-58
2022/06/05 05:11:00;;;;;;;6.65;5.00;;;;;;;30.11;44.78;101092.31;5079590;28;20843;-58
2022/06/05 05:13:27;;;;;;;5.82;4.80;;;;;;;30.45;43.71;101100.34;5088363;28;20520;-58
2022/06/05 05:15:56;;;;;;;6.32;4.95;;;;;;;30.64;43.61;101094.06;5070756;28;20418;-58
2022/06/05 05:18:24;;;;;;;6.28;4.80;;;;;;;30.81;42.87;101083.41;5077282;28;20420;-59
2022/06/05 05:20:51;;;;;;;8.38;4.88;;;;;;;30.96;42.30;101079.63;5061619;28;20422;-58
2022/06/05 05:23:19;;;;;;;7.53;4.70;;;;;;;31.18;42.13;101083.66;5068988;28;20518;-59
2022/06/05 05:25:46;;;;;;;6.88;4.60;;;;;;;31.45;41.66;101080.97;5067067;28;20430;-56
2022/06/05 05:28:13;;;;;;;6.80;4.53;;;;;;;31.63;41.94;101081.22;5066685;28;20439;-58
2022/06/05 05:30:44;;;;;;;7.75;4.68;;;;;;;31.71;41.47;101074.22;5068692;28;20441;-58
2022/06/05 05:33:13;;;;;;;6.30;4.93;;;;;;;31.84;40.96;101076.16;5065982;28;20419;-58
2022/06/05 05:35:40;;;;;;;7.38;4.10;;;;;;;32.28;39.78;101077.44;5065800;28;20450;-58
2022/06/05 05:38:07;;;;;;;6.75;4.25;;;;;;;32.55;39.00;101079.31;5068825;28;20468;-58
2022/06/05 05:43:18;;;;;;;5.85;4.10;;;;;;;33.14;38.11;101078.50;5068980;28;20475;-59
2022/06/05 05:45:45;;;;;;;6.20;4.10;;;;;;;33.53;37.17;101088.72;5069047;28;20414;-59
2022/06/05 05:48:13;;;;;;;5.25;4.00;;;;;;;33.86;37.22;101090.34;5069205;28;20423;-59
2022/06/05 05:50:43;;;;;;;4.90;3.92;;;;;;;34.02;36.45;101101.72;5066231;28;20410;-59
2022/06/05 05:53:10;;;;;;;8.25;4.95;;;;;;;34.09;36.73;101093.81;5087270;28;20409;-59
2022/06/05 05:55:37;;;;;;;7.20;3.97;;;;;;;34.34;35.84;101091.44;5083393;28;20416;-58
2022/06/05 05:58:04;;;;;;;4.22;3.83;;;;;;;34.59;35.04;101087.06;5089075;28;20807;-58
2022/06/05 06:00:31;;;;;;;5.80;4.07;;;;;;;34.59;34.91;101089.81;5077744;28;20942;-59
2022/06/05 06:02:58;;;;;;;4.25;3.70;;;;;;;34.90;34.64;101092.44;5064815;28;20501;-59
2022/06/05 06:05:26;;;;;;;5.60;3.70;;;;;;;35.10;34.08;101088.19;5061064;28;20413;-57
2022/06/05 06:07:53;;;;;;;8.73;3.88;;;;;;;35.16;33.59;101089.63;5066155;28;20512;-57
2022/06/05 06:10:20;;;;;;;6.40;3.45;;;;;;;35.30;33.22;101080.38;5065571;28;20437;-59
2022/06/05 06:12:47;;;;;;;5.47;3.83;;;;;;;35.34;32.83;101079.38;5066443;28;20437;-59
2022/06/05 06:15:14;;;;;;;8.77;4.68;;;;;;;35.56;32.28;101074.75;5066328;28;20422;-56
2022/06/05 06:17:41;;;;;;;5.10;3.60;;;;;;;35.87;31.73;101074.47;5067885;28;20533;-57
2022/06/05 06:20:09;;;;;;;3.90;3.35;;;;;;;35.68;31.76;101079.59;5061957;28;20419;-59
2022/06/05 06:22:37;;;;;;;4.80;3.22;;;;;;;35.95;31.39;101083.84;5068373;28;20799;-59
2022/06/05 06:25:06;;;;;;;6.30;3.50;;;;;;;36.16;31.00;101084.69;5071719;28;20752;-59
2022/06/05 06:27:33;;;;;;;7.32;4.22;;;;;;;36.36;31.20;101066.53;5068972;28;20428;-60
2022/06/05 06:29:59;;;;;;;5.63;3.20;;;;;;;36.43;29.98;101071.53;5069250;28;20414;-60
2022/06/05 06:32:26;;;;;;;4.90;3.20;;;;;;;36.78;29.88;101068.47;5069912;28;20415;-57
2022/06/05 06:34:53;;;;;;;5.38;3.80;;;;;;;36.91;29.75;101067.34;5064639;28;20433;-57
2022/06/05 06:37:21;;;;;;;5.60;2.90;;;;;;;37.09;29.37;101064.41;5068057;28;20411;-60
2022/06/05 06:39:49;;;;;;;5.63;3.80;;;;;;;37.16;29.67;101064.69;5062993;28;20421;-57
2022/06/05 06:42:16;;;;;;;5.18;3.17;;;;;;;37.50;28.97;101057.13;5065290;28;20944;-60
2022/06/05 06:44:43;;;;;;;5.32;2.95;;;;;;;37.24;28.51;101057.44;5087231;28;20541;-59
2022/06/05 06:47:10;;;;;;;4.40;2.85;;;;;;;37.30;28.00;101059.63;5086104;28;20401;-59
2022/06/05 06:49:37;;;;;;;6.03;2.65;;;;;;;36.76;27.82;101062.47;5070843;28;20413;-60
2022/06/05 06:52:05;;;;;;;6.22;2.40;;;;;;;36.01;28.86;101065.94;5082579;28;20417;-59
2022/06/05 06:54:32;;;;;;;6.40;3.35;;;;;;;35.77;29.43;101064.63;5072276;28;20415;-59
2022/06/05 06:57:00;;;;;;;4.47;2.60;;;;;;;35.60;29.37;101073.78;5071273;28;20403;-59
2022/06/05 06:59:29;;;;;;;7.22;2.70;;;;;;;35.55;29.38;101073.16;5087723;28;20409;-60
2022/06/05 07:01:56;;;;;;;3.45;2.70;;;;;;;35.48;29.90;101067.34;5091110;28;20415;-59
2022/06/05 07:04:23;;;;;;;5.18;2.70;;;;;;;35.44;30.45;101066.38;5076424;28;20407;-59
2022/06/05 07:06:50;;;;;;;4.45;2.85;;;;;;;35.32;30.66;101073.41;5080325;28;20405;-59
2022/06/05 07:09:18;;;;;;;4.13;2.70;;;;;;;35.14;30.72;101069.84;5091732;28;20799;-59
2022/06/05 07:11:45;;;;;;;5.95;3.75;;;;;;;35.08;30.29;101065.66;5090999;28;20408;-59
2022/06/05 07:14:16;;;;;;;4.38;2.33;;;;;;;34.45;30.89;101066.03;5078158;28;20410;-59
2022/06/05 07:16:43;;;;;;;5.10;2.80;;;;;;;34.47;31.23;101066.50;5090131;28;20408;-59
2022/06/05 07:19:10;;;;;;;4.40;2.40;;;;;;;34.49;31.54;101071.69;5091511;28;20413;-59
2022/06/05 07:21:37;;;;;;;4.15;2.20;;;;;;;34.46;31.16;101062.13;5088014;28;20433;-59
2022/06/05 07:24:04;;;;;;;4.73;2.47;;;;;;;34.41;30.95;101073.31;5072312;28;20785;-59
2022/06/05 07:26:33;;;;;;;6.25;2.83;;;;;;;34.13;30.89;101064.50;5072523;28;20433;-58
2022/06/05 07:29:00;;;;;;;4.90;2.40;;;;;;;34.32;31.26;101064.22;5072158;28;20427;-59
2022/06/05 07:31:30;;;;;;;3.08;2.20;;;;;;;34.14;31.05;101065.31;5070630;28;20426;-59
2022/06/05 07:33:58;;;;;;;6.25;2.10;;;;;;;34.09;31.33;101058.03;5079379;28;20907;-58
2022/06/05 07:36:26;;;;;;;5.05;2.20;;;;;;;34.21;30.85;101062.94;5078923;28;20429;-59
2022/06/05 07:38:55;;;;;;;5.43;2.40;;;;;;;34.31;30.91;101064.56;5091972;28;20397;-58
2022/06/05 07:41:26;;;;;;;5.15;2.00;;;;;;;34.31;30.75;101068.13;5092494;28;20417;-58
2022/06/05 07:43:53;;;;;;;5.97;3.60;;;;;;;34.56;30.44;101063.75;5092203;28;20516;-58
2022/06/05 07:46:21;;;;;;;4.45;1.80;;;;;;;34.65;29.74;101064.56;5092108;28;20930;-58
2022/06/05 07:48:50;;;;;;;4.40;1.90;;;;;;;34.58;30.30;101057.94;5091738;28;20470;-58
2022/06/05 07:56:48;;;;;;;4.10;1.75;;;;;;;34.42;29.25;101065.88;5091970;28;20470;-59
2022/06/05 07:59:15;;;;;;;6.20;3.60;;;;;;;34.71;29.37;101064.44;5077433;28;20940;-59
2022/06/05 08:01:42;;;;;;;4.40;1.70;;;;;;;34.68;28.68;101065.84;5084615;28;20996;-59
2022/06/05 08:04:10;;;;;;;5.95;2.00;;;;;;;34.71;28.10;101065.22;5071488;28;20403;-59
2022/06/05 08:06:38;;;;;;;3.88;1.80;;;;;;;34.72;27.71;101061.34;5076817;28;20866;-59
2022/06/05 08:09:06;;;;;;;7.37;1.80;;;;;;;34.67;27.90;101055.97;5079904;28;20442;-59
2022/06/05 08:11:34;;;;;;;7.35;1.90;;;;;;;34.39;28.05;101056.28;5089905;28;20409;-59
2022/06/05 08:14:01;;;;;;;3.75;1.90;;;;;;;34.46;28.13;101050.31;5077125;28;20413;-59
2022/06/05 08:16:28;;;;;;;5.10;1.85;;;;;;;34.41;27.72;101056.81;5080007;28;20430;-59
2022/06/05 08:18:55;;;;;;;4.50;1.70;;;;;;;34.44;27.85;101056.13;5089211;28;20413;-59
2022/06/05 08:21:24;;;;;;;3.78;1.80;;;;;;;34.43;28.48;101048.19;5081555;28;20913;-59
2022/06/05 08:23:51;;;;;;;5.13;2.00;;;;;;;34.59;28.21;101051.28;5087704;28;20409;-59
2022/06/05 08:26:18;;;;;;;4.72;1.98;;;;;;;34.59;28.08;101045.78;5091698;28;20425;-59
2022/06/05 08:28:45;;;;;;;3.78;1.90;;;;;;;34.72;28.55;101044.84;5076608;28;20513;-59
2022/06/05 08:31:12;;;;;;;3.15;1.80;;;;;;;34.64;28.25;101045.59;5077756;28;20930;-59
2022/06/05 08:33:38;;;;;;;3.27;1.90;;;;;;;34.55;28.30;101042.84;5091108;28;20799;-59
2022/06/05 08:36:06;;;;;;;5.55;1.85;;;;;;;34.59;28.30;101038.34;5071899;28;20425;-59
2022/06/05 08:41:38;;;;;;;4.57;1.73;;;;;;;34.74;28.15;101039.81;5054206;28;20797;-59
2022/06/05 08:44:19;;;;;;;3.60;1.65;;;;;;;34.72;28.22;101039.31;5076841;28;20414;-59
2022/06/05 08:46:51;;;;;;;5.20;1.77;;;;;;;34.91;27.58;101044.47;5090923;28;20945;-59
2022/06/05 08:49:28;;;;;;;5.38;1.90;;;;;;;34.91;27.51;101047.22;5090552;28;20821;-59
2022/06/05 08:52:02;;;;;;;2.92;1.60;;;;;;;34.81;27.34;101044.81;5090971;28;20415;-58
2022/06/05 08:54:45;;;;;;;3.00;1.50;;;;;;;34.89;27.10;101032.97;5090957;28;20431;-59
2022/06/05 08:57:16;;;;;;;2.60;1.45;;;;;;;34.99;26.96;101038.13;5078906;28;20500;-59
2022/06/05 08:59:51;;;;;;;2.83;1.52;;;;;;;34.92;27.29;101048.84;5084742;28;20411;-59
2022/06/05 09:02:24;;;;;;;4.97;1.70;;;;;;;34.98;26.95;101050.28;5070362;28;20930;-58
2022/06/05 09:04:57;;;;;;;4.50;1.70;;;;;;;34.93;26.76;101049.66;5075358;28;20420;-59
2022/06/05 09:07:27;;;;;;;2.08;1.45;;;;;;;35.00;26.91;101044.44;5078488;28;20796;-59
2022/06/05 09:10:00;;;;;;;3.35;1.40;;;;;;;35.00;26.95;101042.50;5074081;28;20417;-59
2022/06/05 09:12:35;;;;;;;5.40;1.70;;;;;;;35.07;26.94;101044.75;5090348;28;20795;-59
2022/06/05 09:15:11;;;;;;;2.45;1.60;;;;;;;34.82;27.42;101049.19;5090127;28;20405;-59
2022/06/05 09:17:44;;;;;;;3.95;1.60;;;;;;;34.79;27.96;101052.56;5090342;28;20406;-59
2022/06/05 09:20:16;;;;;;;2.85;1.52;;;;;;;34.69;27.03;101044.66;5070671;28;20414;-59
2022/06/05 09:22:50;;;;;;;3.57;1.50;;;;;;;34.81;27.01;101042.06;5082571;28;20406;-59
2022/06/05 09:25:46;;;;;;;2.65;1.70;;;;;;;35.01;27.42;101035.84;5070682;28;20819;-59
2022/06/05 09:28:45;;;;;;;3.13;1.48;;;;;;;34.92;27.31;101037.03;5084140;28;20428;-59
2022/06/05 09:31:32;;;;;;;1.90;1.40;;;;;;;34.96;27.44;101036.03;5056084;28;20409;-59
2022/06/05 09:34:04;;;;;;;2.53;1.70;;;;;;;35.00;27.50;101025.97;5090402;28;20413;-59
2022/06/05 09:36:33;;;;;;;2.97;1.70;;;;;;;34.95;27.76;101026.16;5076470;28;20415;-59
2022/06/05 09:39:10;;;;;;;8.35;1.77;;;;;;;35.08;27.16;101027.09;5069741;28;20982;-59
2022/06/05 09:41:47;;;;;;;2.65;1.45;;;;;;;34.98;27.49;101013.66;5070176;28;20414;-59
2022/06/05 09:44:28;;;;;;;4.70;1.67;;;;;;;35.04;27.63;101024.19;5064339;28;20409;-59
2022/06/05 09:47:00;;;;;;;3.40;1.70;;;;;;;35.10;27.89;101018.50;5088349;28;20405;-59
2022/06/05 09:49:35;;;;;;;2.05;1.63;;;;;;;35.09;27.32;101023.19;5077952;28;20429;-59
2022/06/05 09:52:11;;;;;;;2.78;1.67;;;;;;;35.12;27.34;101011.50;5089686;28;20397;-58
2022/06/05 09:54:43;;;;;;;3.30;1.70;;;;;;;35.10;27.47;101013.78;5075249;28;20409;-59
2022/06/05 10:00:14;;;;;;;2.97;1.63;;;;;;;34.93;27.14;101009.13;5077792;28;20468;-59
2022/06/05 10:02:43;;;;;;;2.20;1.48;;;;;;;35.07;27.48;101019.16;5088086;28;20516;-59
2022/06/05 10:05:16;;;;;;;3.03;1.73;;;;;;;35.16;27.47;101019.94;5069631;28;20488;-59
2022/06/05 10:07:52;;;;;;;3.35;1.52;;;;;;;35.10;26.74;101019.31;5069967;28;20498;-59
2022/06/05 10:10:23;;;;;;;3.33;1.60;;;;;;;35.08;26.82;101018.81;5089755;28;20440;-59
2022/06/05 10:12:56;;;;;;;3.43;1.67;;;;;;;35.07;27.11;101019.16;5088825;28;20803;-59
2022/06/05 10:15:27;;;;;;;3.77;1.40;;;;;;;35.05;26.81;101022.22;5077287;28;20488;-59
2022/06/05 10:17:58;;;;;;;2.50;1.33;;;;;;;35.10;25.91;101016.53;5089103;28;20443;-59
2022/06/05 10:20:56;;;;;;;2.47;1.70;;;;;;;35.08;26.56;101029.84;5068983;28;20411;-59
2022/06/05 10:23:50;;;;;;;3.15;1.60;;;;;;;35.00;26.22;101022.41;5072436;28;20451;-59
2022/06/05 10:26:30;;;;;;;3.88;1.30;;;;;;;35.09;25.81;101023.19;5075467;28;20793;-59
2022/06/05 10:29:20;;;;;;;2.05;1.40;;;;;;;35.00;26.44;101028.72;5056798;28;20433;-59
2022/06/05 10:31:55;;;;;;;1.65;1.30;;;;;;;34.97;26.50;101025.81;5071953;28;20414;-59
2022/06/05 10:34:32;;;;;;;3.35;1.38;;;;;;;34.73;26.44;101020.84;5089489;28;20409;-59
2022/06/05 10:37:04;;;;;;;2.50;1.50;;;;;;;34.77;26.06;101016.28;5074758;28;20416;-59
2022/06/05 10:39:39;;;;;;;1.93;1.40;;;;;;;34.85;26.61;101012.72;5078775;28;20415;-58
2022/06/05 10:42:23;;;;;;;5.38;1.52;;;;;;;34.77;26.37;101021.81;5072434;28;20791;-58
2022/06/05 10:45:07;;;;;;;4.15;1.60;;;;;;;34.95;25.58;101014.31;5089076;28;20424;-58
2022/06/05 10:47:42;;;;;;;2.25;1.30;;;;;;;34.97;26.53;101012.88;5089088;28;20420;-59
2022/06/05 10:50:15;;;;;;;2.03;1.25;;;;;;;34.94;26.08;101010.75;5088982;28;20922;-58
2022/06/05 10:52:48;;;;;;;3.28;1.30;;;;;;;35.01;25.74;101002.00;5089223;28;20417;-59
2022/06/05 10:55:40;;;;;;;1.90;1.50;;;;;;;35.09;26.26;101000.34;5089398;28;20405;-59
2022/06/05 10:58:17;;;;;;;3.72;1.50;;;;;;;35.14;26.63;100989.94;5088837;28;20417;-58
2022/06/05 11:01:26;;;;;;;2.47;1.60;;;;;;;35.13;27.00;100995.78;5088948;28;20423;-59
2022/06/05 11:04:00;;;;;;;1.92;1.33;;;;;;;35.12;27.14;100992.22;5056879;28;20904;-59
2022/06/05 11:06:36;;;;;;;1.70;1.25;;;;;;;35.17;27.02;100986.53;5086848;28;20968;-58
2022/06/05 11:09:16;;;;;;;2.80;1.92;;;;;;;35.08;27.15;100998.72;5077077;28;20525;-58
2022/06/05 11:14:46;;;;;;;2.67;1.70;;;;;;;34.91;27.27;100992.13;5069281;28;20504;-58
2022/06/05 11:17:28;;;;;;;2.22;1.50;;;;;;;34.94;27.21;100987.91;5088811;28;20417;-59
2022/06/05 11:20:05;;;;;;;2.72;1.45;;;;;;;34.91;26.67;100989.38;5088954;28;20397;-59
2022/06/05 11:22:33;;;;;;;3.03;1.40;;;;;;;34.81;26.63;100995.25;5089183;28;20480;-59
2022/06/05 11:25:13;;;;;;;3.90;1.70;;;;;;;34.93;27.04;100978.81;5071371;28;20925;-59
2022/06/05 11:27:51;;;;;;;1.75;1.60;;;;;;;34.88;26.92;100970.75;5067634;28;20961;-59
2022/06/05 11:30:24;;;;;;;1.80;1.60;;;;;;;35.00;27.23;100979.13;5068568;28;20800;-59
2022/06/05 11:33:01;;;;;;;3.55;1.50;;;;;;;34.87;27.23;100971.09;5081190;28;20784;-59
2022/06/05 11:35:35;;;;;;;2.03;1.60;;;;;;;34.84;27.39;100967.03;5092531;28;20500;-59
2022/06/05 11:38:14;;;;;;;3.03;1.63;;;;;;;34.78;27.40;100963.66;5092484;28;20405;-58
2022/06/05 11:40:48;;;;;;;3.80;1.45;;;;;;;34.75;27.57;100956.03;5092567;28;20417;-58
2022/06/05 11:43:27;;;;;;;3.13;1.60;;;;;;;34.83;27.59;100944.19;5090707;28;20449;-58
2022/06/05 11:46:00;;;;;;;3.20;1.52;;;;;;;34.82;27.39;100947.28;5072152;28;20417;-59
2022/06/05 11:48:36;;;;;;;3.00;1.60;;;;;;;34.99;27.38;100952.72;5088168;28;20420;-59
2022/06/05 11:51:11;;;;;;;3.08;1.50;;;;;;;35.06;27.78;100949.47;5092006;28;20791;-59
2022/06/05 11:53:49;;;;;;;2.58;1.70;;;;;;;35.11;27.58;100940.19;5081174;28;20407;-59
2022/06/05 11:56:39;;;;;;;2.53;1.90;;;;;;;35.05;27.12;100939.56;5071698;28;20411;-58
2022/06/05 11:59:19;;;;;;;2.20;1.58;;;;;;;35.03;27.65;100934.41;5071701;28;20412;-59
2022/06/05 12:01:54;;;;;;;3.22;1.70;;;;;;;34.90;27.46;100940.13;5071861;28;20417;-58